createdAt,value
2023-02-17T00:00:36.548Z,30.30
2023-02-17T00:02:39.929Z,30.67
2023-02-17T00:04:42.776Z,30.37
2023-02-17T00:06:45.701Z,30.20
2023-02-17T00:08:49.073Z,30.47
2023-02-17T00:11:00.879Z,29.43
2023-02-17T00:13:03.950Z,30.37
2023-02-17T00:15:09.868Z,30.10
2023-02-17T00:17:12.633Z,30.50
2023-02-17T00:19:25.236Z,30.13
2023-02-17T00:21:30.195Z,29.27
2023-02-17T00:23:32.979Z,29.07
2023-02-17T00:25:35.845Z,27.50
2023-02-17T00:27:39.112Z,28.70
2023-02-17T00:29:41.983Z,28.83
2023-02-17T00:31:46.895Z,27.67
2023-02-17T00:33:50.152Z,27.87
2023-02-17T00:35:52.929Z,28.80
2023-02-17T00:37:58.392Z,28.00
2023-02-17T00:40:01.218Z,28.77
2023-02-17T00:42:04.198Z,27.40
2023-02-17T00:44:07.234Z,28.90
2023-02-17T00:46:10.084Z,29.20
2023-02-17T00:48:14.370Z,29.30
2023-02-17T00:50:17.421Z,28.23
2023-02-17T00:52:20.447Z,27.63
2023-02-17T00:54:23.357Z,28.17
2023-02-17T00:56:26.181Z,27.80
2023-02-17T00:58:29.555Z,26.70
2023-02-17T01:00:32.394Z,26.23
2023-02-17T01:02:35.187Z,26.87
2023-02-17T01:04:39.492Z,26.73
2023-02-17T01:06:42.791Z,26.53
2023-02-17T01:08:45.654Z,28.33
2023-02-17T01:10:50.864Z,28.47
2023-02-17T01:12:54.134Z,27.00
2023-02-17T01:14:56.981Z,27.70
2023-02-17T01:16:59.773Z,27.67
2023-02-17T01:19:02.838Z,27.17
2023-02-17T01:21:07.165Z,26.57
2023-02-17T01:23:12.739Z,27.63
2023-02-17T01:25:18.143Z,28.13
2023-02-17T01:27:21.259Z,27.03
2023-02-17T01:29:24.318Z,26.63
2023-02-17T01:31:28.374Z,27.33
2023-02-17T01:33:31.259Z,27.47
2023-02-17T01:35:34.729Z,25.83
2023-02-17T01:37:38.986Z,28.50
2023-02-17T01:39:41.777Z,26.87
2023-02-17T01:41:45.270Z,26.97
2023-02-17T01:44:06.691Z,25.20
2023-02-17T01:46:10.563Z,26.23
2023-02-17T01:48:15.914Z,25.53
2023-02-17T01:50:23.663Z,26.67
2023-02-17T01:52:27.351Z,25.13
2023-02-17T01:54:37.113Z,26.63
2023-02-17T01:56:43.828Z,26.60
2023-02-17T01:58:52.777Z,24.80
2023-02-17T02:00:58.209Z,25.70
2023-02-17T02:03:02.931Z,24.97
2023-02-17T02:05:06.684Z,26.03
2023-02-17T02:07:18.079Z,25.57
2023-02-17T02:09:24.479Z,26.10
2023-02-17T02:11:28.808Z,24.17
2023-02-17T02:13:31.888Z,26.07
2023-02-17T02:15:41.990Z,24.13
2023-02-17T02:17:59.858Z,24.77
2023-02-17T02:20:40.361Z,24.53
2023-02-17T02:23:26.153Z,24.47
2023-02-17T02:25:50.158Z,23.63
2023-02-17T02:28:07.650Z,23.67
2023-02-17T02:30:29.221Z,23.03
2023-02-17T02:32:58.173Z,24.53
2023-02-17T02:35:07.207Z,23.23
2023-02-17T02:37:16.130Z,24.80
2023-02-17T02:39:21.230Z,25.10
2023-02-17T02:41:27.940Z,23.37
2023-02-17T02:43:32.456Z,23.87
2023-02-17T02:45:35.644Z,23.80
2023-02-17T02:47:48.781Z,24.13
2023-02-17T02:49:51.709Z,23.00
2023-02-17T02:52:00.996Z,23.40
2023-02-17T02:54:25.318Z,22.80
2023-02-17T02:56:50.354Z,23.33
2023-02-17T02:59:07.227Z,22.33
2023-02-17T03:01:17.998Z,21.63
2023-02-17T03:03:28.681Z,21.57
2023-02-17T03:05:39.134Z,22.80
2023-02-17T03:07:47.526Z,21.40
2023-02-17T03:09:52.409Z,20.77
2023-02-17T03:11:56.621Z,21.20
2023-02-17T03:14:02.883Z,21.07
2023-02-17T03:16:06.631Z,21.60
2023-02-17T03:18:09.694Z,20.87
2023-02-17T03:20:15.258Z,20.20
2023-02-17T03:22:22.406Z,20.47
2023-02-17T03:24:25.430Z,20.93
2023-02-17T03:26:28.311Z,20.23
2023-02-17T03:28:31.347Z,20.23
2023-02-17T03:30:34.205Z,20.00
2023-02-17T03:32:40.396Z,20.73
2023-02-17T03:34:43.207Z,19.33
2023-02-17T03:36:47.694Z,19.07
2023-02-17T03:38:50.682Z,19.50
2023-02-17T03:40:53.704Z,20.70
2023-02-17T03:42:57.494Z,20.63
2023-02-17T03:45:00.305Z,20.03
2023-02-17T03:47:03.275Z,19.07
2023-02-17T03:49:06.265Z,20.33
2023-02-17T03:51:14.275Z,19.10
2023-02-17T03:53:18.453Z,19.90
2023-02-17T03:55:22.330Z,18.97
2023-02-17T03:57:25.304Z,18.90
2023-02-17T03:59:32.999Z,18.93
2023-02-17T04:01:35.829Z,18.73
2023-02-17T04:03:39.673Z,18.37
2023-02-17T04:05:45.474Z,18.10
2023-02-17T04:07:48.425Z,18.13
2023-02-17T04:09:52.640Z,17.87
2023-02-17T04:11:55.443Z,18.53
2023-02-17T04:13:58.531Z,17.10
2023-02-17T04:16:04.183Z,17.33
2023-02-17T04:18:07.126Z,18.03
2023-02-17T04:20:10.884Z,17.67
2023-02-17T04:22:13.856Z,17.37
2023-02-17T04:24:16.653Z,16.90
2023-02-17T04:26:20.895Z,17.57
2023-02-17T04:28:23.959Z,17.40
2023-02-17T04:30:26.945Z,17.90
2023-02-17T04:32:29.740Z,17.60
2023-02-17T04:34:32.701Z,16.37
2023-02-17T04:36:35.600Z,17.50
2023-02-17T04:38:39.072Z,17.20
2023-02-17T04:40:42.621Z,17.40
2023-02-17T04:42:47.342Z,17.00
2023-02-17T04:44:50.204Z,17.40
2023-02-17T04:46:53.271Z,17.03
2023-02-17T04:48:56.216Z,16.80
2023-02-17T04:50:59.034Z,17.80
2023-02-17T04:53:01.972Z,18.13
2023-02-17T04:55:05.812Z,17.13
2023-02-17T04:57:08.709Z,18.63
2023-02-17T04:59:12.956Z,16.83
2023-02-17T05:01:15.882Z,18.13
2023-02-17T05:03:19.061Z,18.13
2023-02-17T05:05:21.834Z,18.67
2023-02-17T05:07:24.956Z,18.77
2023-02-17T05:09:28.151Z,19.67
2023-02-17T05:11:31.447Z,19.00
2023-02-17T05:13:34.388Z,18.00
2023-02-17T05:15:38.912Z,18.07
2023-02-17T05:17:42.057Z,18.33
2023-02-17T05:19:45.052Z,19.27
2023-02-17T05:21:48.377Z,17.90
2023-02-17T05:23:51.365Z,18.67
2023-02-17T05:25:54.280Z,18.63
2023-02-17T05:27:57.231Z,19.53
2023-02-17T05:30:00.406Z,18.30
2023-02-17T05:32:05.155Z,19.50
2023-02-17T05:34:08.191Z,17.63
2023-02-17T05:36:12.705Z,19.33
2023-02-17T05:38:15.504Z,18.10
2023-02-17T05:40:18.670Z,18.53
2023-02-17T05:42:21.524Z,18.97
2023-02-17T05:44:24.495Z,18.13
2023-02-17T05:46:27.282Z,18.97
2023-02-17T05:48:31.438Z,19.97
2023-02-17T05:50:34.416Z,18.93
2023-02-17T05:52:37.263Z,17.73
2023-02-17T05:54:40.527Z,18.67
2023-02-17T05:56:43.369Z,19.00
2023-02-17T05:58:46.236Z,19.30
2023-02-17T06:00:49.368Z,19.30
2023-02-17T06:02:52.380Z,19.03
2023-02-17T06:04:56.765Z,18.57
2023-02-17T06:06:59.835Z,18.77
2023-02-17T06:09:03.023Z,17.37
2023-02-17T06:11:06.116Z,17.33
2023-02-17T06:13:09.238Z,17.93
2023-02-17T06:15:12.223Z,18.57
2023-02-17T06:17:15.144Z,18.93
2023-02-17T06:19:18.366Z,17.73
2023-02-17T06:21:22.791Z,18.70
2023-02-17T06:23:25.903Z,18.47
2023-02-17T06:25:33.139Z,18.30
2023-02-17T06:27:36.072Z,18.30
2023-02-17T06:29:39.066Z,18.87
2023-02-17T06:31:42.007Z,19.30
2023-02-17T06:33:45.000Z,18.00
2023-02-17T06:35:50.527Z,17.90
2023-02-17T06:37:54.966Z,18.47
2023-02-17T06:39:58.191Z,17.60
2023-02-17T06:42:01.339Z,16.97
2023-02-17T06:44:04.816Z,17.17
2023-02-17T06:46:08.217Z,18.70
2023-02-17T06:48:11.551Z,19.00
2023-02-17T06:50:15.802Z,18.10
2023-02-17T06:52:18.797Z,19.10
2023-02-17T06:54:23.315Z,19.50
2023-02-17T06:56:26.334Z,18.30
2023-02-17T06:58:29.267Z,18.27
2023-02-17T07:00:32.250Z,18.43
2023-02-17T07:02:35.229Z,18.53
2023-02-17T07:04:38.124Z,18.23
2023-02-17T07:06:41.312Z,18.17
2023-02-17T07:08:44.606Z,17.27
2023-02-17T07:10:48.882Z,17.97
2023-02-17T07:12:52.560Z,17.17
2023-02-17T07:14:55.381Z,15.33
2023-02-17T07:16:58.291Z,16.57
2023-02-17T07:19:01.570Z,15.87
2023-02-17T07:21:05.715Z,15.97
2023-02-17T07:23:08.675Z,15.47
2023-02-17T07:25:11.764Z,13.80
2023-02-17T07:27:16.110Z,13.37
2023-02-17T07:29:19.441Z,13.60
2023-02-17T07:31:22.528Z,12.70
2023-02-17T07:33:26.643Z,13.07
2023-02-17T07:35:29.520Z,13.83
2023-02-17T07:37:32.473Z,12.10
2023-02-17T07:39:35.530Z,12.63
2023-02-17T07:41:38.623Z,12.70
2023-02-17T07:43:43.410Z,11.97
2023-02-17T07:45:46.340Z,11.93
2023-02-17T07:47:49.560Z,10.90
2023-02-17T07:49:52.509Z,10.80
2023-02-17T07:51:55.428Z,10.63
2023-02-17T07:53:58.315Z,10.77
2023-02-17T07:56:03.337Z,10.40
2023-02-17T07:58:06.386Z,10.20
2023-02-17T08:00:12.145Z,10.50
2023-02-17T08:02:15.247Z,10.07
2023-02-17T08:04:18.354Z,9.50
2023-02-17T08:06:23.253Z,9.83
2023-02-17T08:08:44.693Z,9.20
2023-02-17T08:11:05.637Z,8.50
2023-02-17T08:13:20.245Z,8.80
2023-02-17T08:15:24.842Z,7.87
2023-02-17T08:17:27.900Z,8.60
2023-02-17T08:19:46.523Z,7.97
2023-02-17T08:21:51.127Z,7.37
2023-02-17T08:23:54.336Z,7.33
2023-02-17T08:25:58.727Z,7.30
2023-02-17T08:28:01.836Z,7.47
2023-02-17T08:30:05.496Z,7.33
2023-02-17T08:32:10.630Z,7.53
2023-02-17T08:34:14.765Z,7.40
2023-02-17T08:36:25.028Z,7.73
2023-02-17T08:38:30.509Z,7.60
2023-02-17T08:40:33.442Z,7.20
2023-02-17T08:42:36.488Z,7.83
2023-02-17T08:44:39.587Z,7.87
2023-02-17T08:46:43.997Z,7.43
2023-02-17T08:48:48.656Z,7.67
2023-02-17T08:50:51.604Z,7.23
2023-02-17T08:52:54.523Z,7.57
2023-02-17T08:54:57.517Z,7.73
2023-02-17T08:57:00.586Z,7.87
2023-02-17T08:59:03.906Z,7.47
2023-02-17T09:01:06.936Z,8.10
2023-02-17T09:03:10.205Z,7.70
2023-02-17T09:05:39.781Z,8.20
2023-02-17T09:07:53.045Z,7.83
2023-02-17T09:10:17.617Z,7.43
2023-02-17T09:14:54.639Z,7.33
2023-02-17T09:19:45.888Z,8.40
2023-02-17T09:24:22.679Z,8.40
2023-02-17T09:26:27.172Z,8.37
2023-02-17T09:31:10.785Z,8.53
2023-02-17T09:33:13.888Z,8.63
2023-02-17T09:35:18.638Z,7.70
2023-02-17T09:37:24.837Z,8.40
2023-02-17T09:39:28.042Z,7.67
2023-02-17T09:41:39.181Z,6.83
2023-02-17T09:43:42.558Z,6.80
2023-02-17T09:45:51.152Z,6.73
2023-02-17T09:47:57.050Z,7.00
2023-02-17T09:50:03.853Z,6.93
2023-02-17T09:52:11.227Z,6.87
2023-02-17T09:54:19.915Z,6.77
2023-02-17T09:56:32.582Z,6.97
2023-02-17T09:58:42.027Z,7.10
2023-02-17T10:00:48.524Z,7.13
2023-02-17T10:03:00.223Z,8.23
2023-02-17T10:05:08.554Z,8.40
2023-02-17T10:07:18.273Z,8.30
2023-02-17T10:09:27.875Z,7.10
2023-02-17T10:11:34.297Z,8.20
2023-02-17T10:13:38.482Z,7.57
2023-02-17T10:15:43.982Z,7.03
2023-02-17T10:17:52.769Z,7.50
2023-02-17T10:20:00.788Z,6.93
2023-02-17T10:22:08.256Z,6.83
2023-02-17T10:24:11.715Z,7.23
2023-02-17T10:26:27.757Z,6.73
2023-02-17T10:28:43.692Z,7.30
2023-02-17T10:30:55.292Z,6.93
2023-02-17T10:33:02.548Z,6.03
2023-02-17T10:35:15.632Z,5.90
2023-02-17T10:37:26.077Z,6.50
2023-02-17T10:39:48.861Z,17.70
2023-02-17T10:41:56.427Z,13.63
2023-02-17T10:44:00.783Z,16.47
2023-02-17T10:46:09.351Z,32.33
2023-02-17T10:48:17.490Z,20.65
2023-02-17T10:50:23.408Z,8.20
2023-02-17T10:52:37.860Z,11.10
2023-02-17T10:54:45.164Z,15.15
2023-02-17T10:56:52.607Z,10.00
2023-02-17T10:59:06.305Z,14.30
2023-02-17T11:01:09.737Z,6.55
2023-02-17T11:03:21.041Z,10.35
2023-02-17T11:05:27.312Z,3.97
2023-02-17T11:07:36.131Z,3.40
2023-02-17T11:09:46.026Z,3.53
2023-02-17T11:11:59.122Z,3.78
2023-02-17T11:14:14.540Z,3.75
2023-02-17T11:16:30.490Z,2.58
2023-02-17T11:18:36.408Z,2.50
2023-02-17T11:20:40.181Z,2.80
2023-02-17T11:22:45.802Z,2.30
2023-02-17T11:24:58.788Z,2.30
2023-02-17T11:27:04.449Z,2.35
2023-02-17T11:29:16.541Z,2.83
2023-02-17T11:31:27.594Z,2.50
2023-02-17T11:33:34.080Z,2.97
2023-02-17T11:35:49.004Z,2.30
2023-02-17T11:38:03.354Z,2.85
2023-02-17T11:40:26.547Z,2.20
2023-02-17T11:42:31.434Z,2.30
2023-02-17T11:44:35.659Z,1.85
2023-02-17T11:46:47.090Z,3.38
2023-02-17T11:49:17.353Z,2.20
2023-02-17T11:51:26.639Z,2.15
2023-02-17T11:53:48.194Z,2.08
2023-02-17T11:56:02.644Z,1.85
2023-02-17T11:58:19.115Z,2.00
2023-02-17T12:00:32.652Z,1.75
2023-02-17T12:02:55.342Z,1.90
2023-02-17T12:05:13.066Z,2.00
2023-02-17T12:07:42.349Z,2.03
2023-02-17T12:09:54.503Z,1.85
2023-02-17T12:12:02.474Z,1.85
2023-02-17T12:14:29.221Z,1.80
2023-02-17T12:16:47.141Z,1.98
2023-02-17T12:19:00.703Z,1.98
2023-02-17T12:21:10.399Z,1.50
2023-02-17T12:23:27.321Z,1.90
2023-02-17T12:25:34.471Z,1.70
2023-02-17T12:27:51.321Z,1.50
2023-02-17T12:30:07.884Z,1.80
2023-02-17T12:32:23.743Z,1.63
2023-02-17T12:34:31.095Z,1.58
2023-02-17T12:36:39.754Z,1.60
2023-02-17T12:38:46.421Z,1.80
2023-02-17T12:40:54.355Z,1.55
2023-02-17T12:43:02.520Z,1.60
2023-02-17T12:45:08.009Z,1.50
2023-02-17T12:47:16.625Z,1.60
2023-02-17T12:49:25.409Z,1.50
2023-02-17T12:51:33.158Z,1.45
2023-02-17T12:53:44.429Z,1.50
2023-02-17T12:55:51.919Z,1.60
2023-02-17T12:57:58.516Z,1.60
2023-02-17T13:00:02.389Z,1.45
2023-02-17T13:02:07.897Z,1.50
2023-02-17T13:04:18.709Z,1.38
2023-02-17T13:06:27.690Z,1.60
2023-02-17T13:08:39.514Z,1.38
2023-02-17T13:10:42.672Z,1.48
2023-02-17T13:12:56.855Z,1.40
2023-02-17T13:15:01.427Z,1.20
2023-02-17T13:17:04.397Z,1.13
2023-02-17T13:19:09.709Z,1.30
2023-02-17T13:21:32.857Z,1.20
2023-02-17T13:23:38.979Z,1.10
2023-02-17T13:25:42.342Z,1.00
2023-02-17T13:27:45.191Z,1.20
2023-02-17T13:29:48.378Z,1.25
2023-02-17T13:31:54.664Z,1.20
2023-02-17T13:34:00.235Z,1.13
2023-02-17T13:36:14.118Z,1.10
2023-02-17T13:38:29.242Z,1.35
2023-02-17T13:40:40.477Z,1.00
2023-02-17T13:42:48.326Z,1.23
2023-02-17T13:44:52.711Z,1.25
2023-02-17T13:46:59.545Z,1.35
2023-02-17T13:49:04.818Z,0.95
2023-02-17T13:51:09.799Z,1.08
2023-02-17T13:53:24.036Z,0.98
2023-02-17T13:55:28.645Z,1.10
2023-02-17T13:57:33.391Z,0.98
2023-02-17T13:59:38.153Z,1.00
2023-02-17T14:01:43.798Z,1.00
2023-02-17T14:03:50.584Z,0.82
2023-02-17T14:05:55.043Z,1.02
2023-02-17T14:08:04.480Z,0.90
2023-02-17T14:10:21.088Z,0.90
2023-02-17T14:12:26.170Z,0.93
2023-02-17T14:14:32.184Z,0.55
2023-02-17T14:16:37.515Z,0.80
2023-02-17T14:18:42.792Z,1.00
2023-02-17T14:20:45.725Z,0.80
2023-02-17T14:22:59.108Z,0.90
2023-02-17T14:25:12.818Z,0.90
2023-02-17T14:27:15.726Z,1.00
2023-02-17T14:29:20.083Z,0.88
2023-02-17T14:31:23.786Z,0.75
2023-02-17T14:33:27.023Z,0.70
2023-02-17T14:35:29.876Z,0.63
2023-02-17T14:37:36.707Z,0.90
2023-02-17T14:39:39.622Z,0.77
2023-02-17T14:41:43.226Z,0.70
2023-02-17T14:43:46.637Z,0.60
2023-02-17T14:46:06.321Z,0.50
2023-02-17T14:48:09.380Z,0.60
2023-02-17T14:50:14.743Z,0.88
2023-02-17T14:52:21.362Z,0.80
2023-02-17T14:54:37.760Z,0.55
2023-02-17T14:56:45.876Z,0.80
2023-02-17T14:58:49.487Z,0.88
2023-02-17T15:00:52.396Z,0.80
2023-02-17T15:02:56.640Z,0.80
2023-02-17T15:04:59.484Z,0.77
2023-02-17T15:07:02.515Z,0.70
2023-02-17T15:09:05.445Z,0.98
2023-02-17T15:11:17.276Z,0.80
2023-02-17T15:13:22.477Z,0.90
2023-02-17T15:15:25.434Z,0.68
2023-02-17T15:17:28.642Z,0.80
2023-02-17T15:19:32.874Z,0.90
2023-02-17T15:21:37.517Z,1.05
2023-02-17T15:23:40.291Z,0.90
2023-02-17T15:25:43.729Z,0.90
2023-02-17T15:27:47.333Z,1.00
2023-02-17T15:29:50.115Z,0.82
2023-02-17T15:31:55.541Z,0.82
2023-02-17T15:33:59.938Z,0.55
2023-02-17T15:36:07.521Z,0.80
2023-02-17T15:38:12.404Z,1.00
2023-02-17T15:40:17.025Z,0.73
2023-02-17T15:42:20.462Z,0.80
2023-02-17T15:44:27.036Z,0.70
2023-02-17T15:46:32.566Z,0.82
2023-02-17T15:48:35.433Z,1.00
2023-02-17T15:50:38.476Z,1.02
2023-02-17T15:52:42.741Z,0.88
2023-02-17T15:54:46.147Z,1.10
2023-02-17T15:56:51.590Z,0.90
2023-02-17T15:58:55.150Z,0.90
2023-02-17T16:01:03.677Z,0.80
2023-02-17T16:03:06.826Z,0.93
2023-02-17T16:05:11.381Z,1.08
2023-02-17T16:07:14.147Z,1.00
2023-02-17T16:09:20.016Z,1.00
2023-02-17T16:11:24.164Z,0.73
2023-02-17T16:13:28.116Z,1.00
2023-02-17T16:15:33.054Z,1.17
2023-02-17T16:17:36.951Z,1.02
2023-02-17T16:19:40.286Z,0.90
2023-02-17T16:21:43.148Z,0.95
2023-02-17T16:23:46.672Z,1.10
2023-02-17T16:25:51.584Z,1.20
2023-02-17T16:27:54.925Z,1.10
2023-02-17T16:29:57.858Z,1.00
2023-02-17T16:32:00.760Z,1.33
2023-02-17T16:34:03.693Z,1.10
2023-02-17T16:36:15.537Z,1.10
2023-02-17T16:38:23.006Z,1.10
2023-02-17T16:40:28.095Z,1.20
2023-02-17T16:42:32.282Z,1.17
2023-02-17T16:44:35.959Z,1.10
2023-02-17T16:46:39.137Z,1.02
2023-02-17T16:48:43.785Z,1.13
2023-02-17T16:50:46.777Z,1.30
2023-02-17T16:52:52.650Z,1.30
2023-02-17T16:54:55.880Z,1.20
2023-02-17T16:56:59.408Z,1.20
2023-02-17T16:59:03.649Z,1.20
2023-02-17T17:01:12.341Z,1.20
2023-02-17T17:03:15.279Z,1.25
2023-02-17T17:05:19.989Z,1.30
2023-02-17T17:07:22.813Z,1.15
2023-02-17T17:09:25.832Z,1.30
2023-02-17T17:11:29.295Z,1.60
2023-02-17T17:13:32.111Z,2.38
2023-02-17T17:15:38.123Z,6.53
2023-02-17T17:17:43.987Z,1.90
2023-02-17T17:19:46.822Z,1.35
2023-02-17T17:21:50.146Z,1.35
2023-02-17T17:23:53.114Z,1.10
2023-02-17T17:26:00.745Z,1.02
2023-02-17T17:28:04.701Z,1.40
2023-02-17T17:30:09.479Z,1.67
2023-02-17T17:32:15.125Z,1.40
2023-02-17T17:34:17.994Z,1.40
2023-02-17T17:36:24.914Z,1.27
2023-02-17T17:38:27.802Z,1.23
2023-02-17T17:40:48.027Z,1.40
2023-02-17T17:42:51.305Z,1.20
2023-02-17T17:44:54.193Z,1.40
2023-02-17T17:46:57.132Z,1.65
2023-02-17T17:49:02.020Z,1.50
2023-02-17T17:51:04.976Z,1.50
2023-02-17T17:53:08.454Z,1.50
2023-02-17T17:55:11.772Z,1.73
2023-02-17T17:57:14.610Z,1.83
2023-02-17T17:59:17.387Z,2.35
2023-02-17T18:01:21.447Z,1.50
2023-02-17T18:03:24.357Z,1.52
2023-02-17T18:05:29.176Z,1.70
2023-02-17T18:07:34.327Z,1.63
2023-02-17T18:09:39.137Z,1.90
2023-02-17T18:11:44.119Z,1.88
2023-02-17T18:13:51.464Z,2.05
2023-02-17T18:15:54.796Z,1.85
2023-02-17T18:17:57.977Z,2.10
2023-02-17T18:20:01.067Z,1.88
2023-02-17T18:22:05.221Z,2.40
2023-02-17T18:24:08.535Z,1.85
2023-02-17T18:26:12.145Z,1.83
2023-02-17T18:28:15.257Z,1.77
2023-02-17T18:30:20.787Z,2.15
2023-02-17T18:32:24.796Z,2.20
2023-02-17T18:34:27.633Z,2.13
2023-02-17T18:36:30.436Z,2.40
2023-02-17T18:38:34.629Z,2.30
2023-02-17T18:40:39.218Z,2.53
2023-02-17T18:42:44.449Z,2.63
2023-02-17T18:44:47.281Z,2.42
2023-02-17T18:46:50.136Z,2.80
2023-02-17T18:48:53.064Z,2.92
2023-02-17T18:50:56.173Z,3.20
2023-02-17T18:52:59.353Z,3.05
2023-02-17T18:55:04.385Z,3.42
2023-02-17T18:57:07.366Z,4.35
2023-02-17T18:59:10.302Z,4.57
2023-02-17T19:01:16.407Z,4.97
2023-02-17T19:03:19.430Z,5.07
2023-02-17T19:05:22.644Z,4.95
2023-02-17T19:07:26.841Z,5.45
2023-02-17T19:09:32.269Z,5.47
2023-02-17T19:11:39.520Z,5.32
2023-02-17T19:13:42.780Z,5.60
2023-02-17T19:15:45.838Z,5.78
2023-02-17T19:17:48.961Z,6.65
2023-02-17T19:19:52.592Z,7.07
2023-02-17T19:21:55.946Z,6.35
2023-02-17T19:23:59.039Z,6.68
2023-02-17T19:26:02.952Z,7.53
2023-02-17T19:28:07.416Z,7.80
2023-02-17T19:30:12.351Z,8.70
2023-02-17T19:32:15.533Z,7.78
2023-02-17T19:34:19.946Z,9.87
2023-02-17T19:36:24.064Z,9.20
2023-02-17T19:38:27.061Z,9.23
2023-02-17T19:40:30.412Z,9.20
2023-02-17T19:42:33.344Z,5.78
2023-02-17T19:44:37.983Z,5.85
2023-02-17T19:46:41.373Z,5.63
2023-02-17T19:48:44.620Z,4.80
2023-02-17T19:50:47.614Z,5.65
2023-02-17T19:52:50.574Z,5.78
2023-02-17T19:54:53.505Z,4.82
2023-02-17T19:56:56.470Z,5.77
2023-02-17T19:59:00.033Z,6.63
2023-02-17T20:01:07.584Z,5.28
2023-02-17T20:03:10.539Z,4.90
2023-02-17T20:05:13.530Z,4.75
2023-02-17T20:07:18.276Z,5.23
2023-02-17T20:09:23.115Z,5.35
2023-02-17T20:11:27.147Z,4.85
2023-02-17T20:13:34.752Z,5.23
2023-02-17T20:15:48.720Z,5.67
2023-02-17T20:17:53.044Z,5.43
2023-02-17T20:19:55.959Z,5.30
2023-02-17T20:22:00.936Z,5.00
2023-02-17T20:24:03.988Z,5.43
2023-02-17T20:26:08.511Z,5.17
2023-02-17T20:28:11.944Z,5.47
2023-02-17T20:30:15.483Z,5.37
2023-02-17T20:32:18.613Z,5.93
2023-02-17T20:34:30.943Z,5.20
2023-02-17T20:36:34.371Z,5.63
2023-02-17T20:38:38.259Z,5.90
2023-02-17T20:40:41.236Z,5.77
2023-02-17T20:42:44.406Z,5.20
2023-02-17T20:44:50.112Z,5.13
2023-02-17T20:46:54.175Z,4.55
2023-02-17T20:48:58.152Z,4.55
2023-02-17T20:51:04.101Z,4.50
2023-02-17T20:53:07.047Z,4.93
2023-02-17T20:55:10.192Z,4.53
2023-02-17T20:57:15.261Z,4.30
2023-02-17T20:59:19.295Z,4.20
2023-02-17T21:01:22.443Z,3.85
2023-02-17T21:03:25.467Z,3.90
2023-02-17T21:05:28.590Z,4.32
2023-02-17T21:07:33.601Z,4.47
2023-02-17T21:09:37.013Z,4.30
2023-02-17T21:11:40.496Z,3.90
2023-02-17T21:13:46.548Z,4.07
2023-02-17T21:15:49.936Z,3.63
2023-02-17T21:17:53.681Z,6.55
2023-02-17T21:19:58.733Z,3.63
2023-02-17T21:22:02.717Z,4.28
2023-02-17T21:24:10.383Z,3.35
2023-02-17T21:26:14.884Z,3.50
2023-02-17T21:28:18.061Z,3.75
2023-02-17T21:30:21.694Z,3.75
2023-02-17T21:32:25.123Z,3.80
2023-02-17T21:34:28.081Z,4.00
2023-02-17T21:36:31.196Z,3.58
2023-02-17T21:38:34.220Z,3.47
2023-02-17T21:40:39.864Z,6.28
2023-02-17T21:43:00.202Z,3.38
2023-02-17T21:45:03.467Z,3.60
2023-02-17T21:47:06.291Z,2.97
2023-02-17T21:49:09.280Z,3.30
2023-02-17T21:51:13.667Z,3.00
2023-02-17T21:53:16.755Z,2.83
2023-02-17T21:55:20.172Z,2.60
2023-02-17T21:57:24.521Z,2.97
2023-02-17T21:59:27.406Z,3.65
2023-02-17T22:01:30.469Z,2.63
2023-02-17T22:03:33.460Z,2.60
2023-02-17T22:05:36.450Z,2.55
2023-02-17T22:07:39.367Z,2.60
2023-02-17T22:09:42.349Z,2.47
2023-02-17T22:11:47.036Z,2.90
2023-02-17T22:13:55.029Z,3.03
2023-02-17T22:15:59.151Z,2.65
2023-02-17T22:18:02.866Z,5.30
2023-02-17T22:20:06.860Z,2.65
2023-02-17T22:22:10.284Z,2.80
2023-02-17T22:24:13.867Z,2.65
2023-02-17T22:26:19.327Z,3.05
2023-02-17T22:28:22.489Z,2.53
2023-02-17T22:30:27.696Z,2.58
2023-02-17T22:32:30.763Z,2.63
2023-02-17T22:34:34.058Z,2.70
2023-02-17T22:36:38.077Z,2.78
2023-02-17T22:38:41.474Z,2.67
2023-02-17T22:40:44.399Z,3.05
2023-02-17T22:42:47.369Z,2.75
2023-02-17T22:44:51.049Z,2.60
2023-02-17T22:46:55.303Z,2.88
2023-02-17T22:48:59.318Z,2.70
2023-02-17T22:51:06.357Z,2.75
2023-02-17T22:53:09.275Z,3.40
2023-02-17T22:55:12.349Z,3.38
2023-02-17T22:57:15.254Z,3.63
2023-02-17T22:59:18.147Z,3.88
2023-02-17T23:01:21.607Z,3.60
2023-02-17T23:03:26.117Z,3.92
2023-02-17T23:05:29.071Z,3.88
2023-02-17T23:07:31.885Z,4.15
2023-02-17T23:09:34.826Z,4.38
2023-02-17T23:11:53.774Z,4.00
2023-02-17T23:13:56.645Z,4.05
2023-02-17T23:15:59.399Z,3.80
2023-02-17T23:18:02.454Z,3.33
2023-02-17T23:20:07.892Z,3.72
2023-02-17T23:22:15.695Z,3.50
2023-02-17T23:24:19.809Z,3.33
2023-02-17T23:26:22.755Z,3.15
2023-02-17T23:28:26.701Z,3.08
2023-02-17T23:30:30.872Z,2.63
2023-02-17T23:32:33.679Z,2.60
2023-02-17T23:34:36.803Z,2.47
2023-02-17T23:36:41.628Z,2.40
2023-02-17T23:38:44.596Z,2.45
2023-02-17T23:40:50.132Z,1.85
2023-02-17T23:42:53.083Z,1.67
2023-02-17T23:44:55.958Z,1.80
2023-02-17T23:46:59.285Z,1.70
2023-02-17T23:49:04.948Z,1.48
2023-02-17T23:51:08.133Z,1.70
2023-02-17T23:53:12.484Z,1.25
2023-02-17T23:55:15.336Z,1.40
2023-02-17T23:57:18.224Z,1.20
2023-02-17T23:59:21.256Z,1.10
